Time;durP1;ratioP1;P1;durP2;ratioP2;P2;SDS_P1;SDS_P2;PMS_P1;PMS_P2;Temp;Humidity;BMP_temperature;BMP_pressure;BME280_temperature;BME280_humidity;BME280_pressure;Samples;Min_cycle;Max_cycle;Signal;HPM_P1;HPM_P2
2022/05/03 00:02:58;;;;;;;7.70;7.00;;;15.50;98.20;;;;;;4988639;28;20461;-70
2022/05/03 00:05:45;;;;;;;8.77;7.17;;;15.50;98.20;;;;;;5004824;28;20484;-71
2022/05/03 00:08:32;;;;;;;7.67;6.97;;;15.40;98.10;;;;;;4989085;28;20457;-69
2022/05/03 00:11:27;;;;;;;7.40;6.70;;;15.40;98.10;;;;;;4990680;28;20523;-69
2022/05/03 00:14:25;;;;;;;7.43;6.80;;;15.40;98.00;;;;;;4998772;28;20449;-69
2022/05/03 00:16:52;;;;;;;7.93;7.23;;;15.40;98.00;;;;;;4983133;28;20462;-70
2022/05/03 00:19:18;;;;;;;6.70;6.10;;;15.40;98.10;;;;;;4969289;28;20470;-71
2022/05/03 00:21:45;;;;;;;7.83;6.93;;;15.40;98.00;;;;;;4965349;28;20525;-70
2022/05/03 00:24:11;;;;;;;8.60;7.30;;;15.40;98.10;;;;;;4970896;28;20226;-69
2022/05/03 00:26:37;;;;;;;7.90;6.90;;;15.40;98.00;;;;;;4985522;28;20450;-70
2022/05/03 00:29:03;;;;;;;8.30;7.00;;;15.40;98.10;;;;;;4969219;28;20465;-70
2022/05/03 00:31:29;;;;;;;8.37;7.60;;;15.40;98.10;;;;;;4970514;28;20238;-69
2022/05/03 00:33:57;;;;;;;6.93;6.33;;;15.30;98.10;;;;;;4969653;28;20526;-69
2022/05/03 00:36:23;;;;;;;7.30;6.70;;;15.30;98.00;;;;;;4985681;28;20957;-71
2022/05/03 00:38:49;;;;;;;9.17;8.23;;;15.30;97.90;;;;;;4966628;28;20458;-69
2022/05/03 00:41:33;;;;;;;7.40;6.70;;;15.30;97.90;;;;;;4970177;28;20962;-70
2022/05/03 00:47:10;;;;;;;7.90;7.10;;;15.40;98.20;;;;;;4974452;28;20953;-68
2022/05/03 00:50:03;;;;;;;8.00;7.20;;;15.40;97.80;;;;;;4987648;28;20465;-69
2022/05/03 00:52:35;;;;;;;7.27;6.60;;;15.40;97.90;;;;;;5004837;28;20480;-69
2022/05/03 00:55:25;;;;;;;7.77;6.97;;;15.30;97.70;;;;;;4990404;28;20825;-70
2022/05/03 00:58:06;;;;;;;8.00;7.30;;;15.30;97.80;;;;;;5004506;28;20987;-70
2022/05/03 01:00:34;;;;;;;7.80;7.10;;;15.30;97.90;;;;;;4989540;28;20895;-68
2022/05/03 01:03:11;;;;;;;8.73;6.70;;;15.20;97.90;;;;;;4989159;28;20453;-69
2022/05/03 01:05:51;;;;;;;7.00;6.33;;;15.20;97.90;;;;;;4989323;28;20607;-69
2022/05/03 01:08:56;;;;;;;7.73;7.00;;;15.20;98.00;;;;;;4988669;28;20892;-68
2022/05/03 01:11:37;;;;;;;10.27;6.57;;;15.20;98.00;;;;;;4996098;28;20465;-71
2022/05/03 01:14:26;;;;;;;8.30;7.47;;;15.10;98.00;;;;;;4988747;28;20468;-69
2022/05/03 01:16:59;;;;;;;7.30;6.70;;;15.10;97.90;;;;;;4985668;28;20480;-71
2022/05/03 01:19:34;;;;;;;9.73;7.30;;;15.00;97.90;;;;;;4991672;28;20457;-69
2022/05/03 01:22:37;;;;;;;7.73;7.03;;;15.00;98.00;;;;;;4992546;28;20543;-69
2022/05/03 01:25:29;;;;;;;7.30;6.63;;;15.00;98.00;;;;;;4992884;28;20487;-69
2022/05/03 01:28:13;;;;;;;7.47;6.70;;;15.00;98.00;;;;;;4989099;28;20941;-69
2022/05/03 01:30:45;;;;;;;7.27;6.57;;;15.00;98.00;;;;;;4991876;28;20493;-71
2022/05/03 01:33:17;;;;;;;8.23;7.43;;;15.00;98.00;;;;;;4993473;28;20461;-69
2022/05/03 01:35:46;;;;;;;7.40;6.70;;;15.00;98.00;;;;;;5007605;28;20465;-70
2022/05/03 01:38:34;;;;;;;8.57;7.67;;;15.00;98.00;;;;;;4993086;28;20459;-69
2022/05/03 01:41:19;;;;;;;8.43;7.53;;;15.00;98.00;;;;;;4993611;28;20457;-69
2022/05/03 01:44:06;;;;;;;8.10;7.40;;;15.00;98.10;;;;;;4991183;28;20487;-70
2022/05/03 01:46:35;;;;;;;7.37;6.67;;;15.00;98.20;;;;;;4990849;28;20457;-68
2022/05/03 01:52:33;;;;;;;8.40;7.53;;;14.90;98.30;;;;;;4976638;28;20462;-68
2022/05/03 01:55:13;;;;;;;7.90;7.00;;;14.90;98.30;;;;;;4986906;28;20511;-69
2022/05/03 01:57:46;;;;;;;7.47;6.70;;;14.90;98.30;;;;;;4991636;28;20461;-72
2022/05/03 02:00:11;;;;;;;7.97;7.17;;;14.90;98.30;;;;;;5007911;28;20481;-73
2022/05/03 02:02:47;;;;;;;10.07;7.90;;;14.90;98.40;;;;;;4991048;28;20464;-68
2022/05/03 02:05:38;;;;;;;8.03;7.23;;;14.90;98.40;;;;;;4991493;28;20465;-70
2022/05/03 02:08:07;;;;;;;7.20;6.50;;;14.90;98.30;;;;;;5007600;28;20454;-70
2022/05/03 02:10:58;;;;;;;7.70;6.90;;;14.90;98.30;;;;;;5007652;28;20609;-69
2022/05/03 02:16:41;;;;;;;8.63;7.47;;;14.80;98.50;;;;;;4992338;28;21026;-70
2022/05/03 02:19:14;;;;;;;10.00;7.40;;;14.80;98.40;;;;;;4990766;28;20456;-69
2022/05/03 02:21:54;;;;;;;8.60;7.80;;;14.80;98.40;;;;;;4988369;28;20459;-71
2022/05/03 02:24:42;;;;;;;7.83;7.10;;;14.80;98.40;;;;;;4989908;28;20536;-68
2022/05/03 02:27:10;;;;;;;8.83;7.93;;;14.80;98.40;;;;;;5006822;28;20461;-68
2022/05/03 02:29:48;;;;;;;8.60;7.27;;;14.80;98.50;;;;;;4990390;28;20555;-69
2022/05/03 02:32:47;;;;;;;7.13;6.43;;;14.80;98.50;;;;;;4998183;28;20532;-69
2022/05/03 02:35:20;;;;;;;7.23;6.30;;;14.70;98.60;;;;;;4982989;28;21025;-69
2022/05/03 02:37:55;;;;;;;8.33;7.50;;;14.70;98.60;;;;;;4972395;28;20873;-69
2022/05/03 02:40:27;;;;;;;7.57;6.67;;;14.70;98.50;;;;;;4988266;28;20531;-70
2022/05/03 02:42:56;;;;;;;7.30;6.60;;;14.70;98.60;;;;;;4976881;28;20813;-70
2022/05/03 02:45:22;;;;;;;9.30;8.40;;;14.70;98.60;;;;;;4973947;28;20464;-70
2022/05/03 02:48:14;;;;;;;9.00;7.53;;;14.70;98.70;;;;;;4990921;28;20962;-71
2022/05/03 02:50:50;;;;;;;9.10;7.07;;;14.70;98.70;;;;;;4981208;28;20486;-69
2022/05/03 02:53:37;;;;;;;8.13;7.33;;;14.70;98.70;;;;;;4971428;28;20462;-70
2022/05/03 02:56:16;;;;;;;9.03;7.70;;;14.70;98.60;;;;;;4984841;28;20950;-69
2022/05/03 02:59:06;;;;;;;9.30;8.20;;;14.70;98.60;;;;;;4989519;28;20444;-69
2022/05/03 03:01:50;;;;;;;9.27;8.33;;;14.70;98.70;;;;;;4991523;28;20461;-70
2022/05/03 03:04:34;;;;;;;8.67;7.53;;;14.60;98.60;;;;;;5006733;28;20461;-69
2022/05/03 03:07:00;;;;;;;7.90;7.20;;;14.60;98.50;;;;;;4986896;28;20457;-71
2022/05/03 03:09:56;;;;;;;10.63;8.20;;;14.60;98.70;;;;;;4970222;28;20986;-70
2022/05/03 03:12:49;;;;;;;8.03;7.30;;;14.60;98.70;;;;;;4971550;28;20609;-71
2022/05/03 03:15:16;;;;;;;8.20;7.30;;;14.60;98.80;;;;;;4970505;28;20462;-69
2022/05/03 03:17:49;;;;;;;10.07;8.10;;;14.60;98.80;;;;;;4971354;28;20557;-69
2022/05/03 03:20:19;;;;;;;8.40;7.60;;;14.50;98.80;;;;;;4954746;28;20488;-68
2022/05/03 03:22:47;;;;;;;9.03;8.10;;;14.50;98.60;;;;;;4986799;28;20458;-69
2022/05/03 03:25:17;;;;;;;11.80;8.00;;;14.50;98.70;;;;;;4962040;28;20469;-69
2022/05/03 03:27:45;;;;;;;11.77;8.70;;;14.50;98.70;;;;;;4970656;28;20446;-69
2022/05/03 03:30:12;;;;;;;8.23;7.50;;;14.50;98.80;;;;;;4971469;28;20466;-70
2022/05/03 03:32:44;;;;;;;9.63;8.63;;;14.50;98.80;;;;;;4966008;28;20478;-68
2022/05/03 03:35:13;;;;;;;9.53;7.10;;;14.50;98.80;;;;;;4970194;28;20512;-67
2022/05/03 03:37:43;;;;;;;9.30;7.70;;;14.50;98.50;;;;;;4970795;28;20541;-71
2022/05/03 03:40:09;;;;;;;10.27;8.00;;;14.50;98.70;;;;;;4967078;28;20506;-68
2022/05/03 03:42:35;;;;;;;7.97;7.20;;;14.50;98.80;;;;;;4968789;28;20465;-70
2022/05/03 03:45:07;;;;;;;11.83;7.60;;;14.50;98.90;;;;;;4970800;28;20466;-70
2022/05/03 03:47:37;;;;;;;8.50;7.70;;;14.50;98.90;;;;;;4970145;28;20230;-69
2022/05/03 03:50:04;;;;;;;10.27;8.30;;;14.50;98.90;;;;;;4986565;28;20462;-69
2022/05/03 03:52:31;;;;;;;10.43;8.30;;;14.50;99.00;;;;;;4982791;28;20502;-70
2022/05/03 03:54:58;;;;;;;11.80;8.57;;;14.50;99.00;;;;;;4969645;28;20454;-71
2022/05/03 03:57:24;;;;;;;8.17;7.40;;;14.50;99.00;;;;;;4969405;28;20615;-69
2022/05/03 03:59:50;;;;;;;9.37;8.43;;;14.40;98.90;;;;;;4969581;28;20465;-70
2022/05/03 04:02:16;;;;;;;9.10;8.07;;;14.40;99.00;;;;;;4971528;28;20458;-70
2022/05/03 04:04:43;;;;;;;10.23;6.93;;;14.40;99.10;;;;;;4969114;28;21641;-72
2022/05/03 04:07:09;;;;;;;8.77;7.40;;;14.40;99.00;;;;;;4961767;28;20278;-69
2022/05/03 04:09:35;;;;;;;8.07;7.27;;;14.40;99.00;;;;;;4959637;28;20466;-70
2022/05/03 04:12:03;;;;;;;8.80;7.90;;;14.40;99.00;;;;;;4970909;28;20238;-69
2022/05/03 04:14:29;;;;;;;11.57;7.37;;;14.40;99.10;;;;;;4965940;28;20691;-69
2022/05/03 04:16:55;;;;;;;8.20;7.40;;;14.40;99.10;;;;;;4958074;28;20479;-70
2022/05/03 04:19:21;;;;;;;8.50;7.70;;;14.40;99.20;;;;;;4962383;28;20723;-69
2022/05/03 04:21:47;;;;;;;7.67;7.00;;;14.40;99.10;;;;;;4951661;28;20626;-70
2022/05/03 04:24:13;;;;;;;10.73;7.40;;;14.40;99.20;;;;;;4959554;28;20505;-70
2022/05/03 04:26:40;;;;;;;8.27;7.30;;;14.40;99.20;;;;;;4966655;28;20459;-69
2022/05/03 04:29:06;;;;;;;9.17;7.10;;;14.40;99.20;;;;;;4964347;28;20600;-69
2022/05/03 04:31:33;;;;;;;13.40;8.70;;;14.40;99.20;;;;;;4970591;28;20474;-70
2022/05/03 04:34:03;;;;;;;9.30;7.60;;;14.40;99.20;;;;;;4969447;28;20464;-70
2022/05/03 04:36:30;;;;;;;8.63;7.77;;;14.40;99.20;;;;;;4970472;28;20458;-70
2022/05/03 04:39:04;;;;;;;8.30;7.50;;;14.30;99.20;;;;;;4953149;28;20453;-70
2022/05/03 04:41:31;;;;;;;7.90;7.10;;;14.40;99.30;;;;;;4970908;28;20457;-69
2022/05/03 04:43:57;;;;;;;9.30;7.70;;;14.40;99.20;;;;;;4975454;28;20547;-70
2022/05/03 04:46:22;;;;;;;8.40;7.50;;;14.30;99.20;;;;;;4982329;28;20481;-70
2022/05/03 04:48:48;;;;;;;7.40;6.70;;;14.30;99.20;;;;;;4952958;28;20230;-68
2022/05/03 04:51:18;;;;;;;11.13;7.30;;;14.30;99.40;;;;;;4973941;28;20246;-70
2022/05/03 04:53:44;;;;;;;8.40;7.70;;;14.30;99.20;;;;;;4972910;28;20277;-70
2022/05/03 04:56:22;;;;;;;12.60;8.93;;;14.30;99.40;;;;;;4966825;28;20467;-67
2022/05/03 04:58:49;;;;;;;9.67;8.67;;;14.30;99.60;;;;;;4970678;28;20313;-67
2022/05/03 05:01:15;;;;;;;9.30;7.67;;;14.30;99.60;;;;;;4997356;28;20472;-68
2022/05/03 05:03:42;;;;;;;10.60;7.43;;;14.30;99.60;;;;;;5005795;28;20460;-67
2022/05/03 05:06:09;;;;;;;8.73;7.67;;;14.30;99.70;;;;;;4994150;28;20463;-67
2022/05/03 05:08:36;;;;;;;8.90;7.57;;;14.30;99.60;;;;;;4986636;28;20467;-68
2022/05/03 05:11:02;;;;;;;7.70;7.00;;;14.30;99.70;;;;;;4988839;28;20468;-68
2022/05/03 05:13:28;;;;;;;10.00;7.70;;;14.30;99.70;;;;;;4981579;28;20464;-67
2022/05/03 05:15:55;;;;;;;7.97;6.77;;;14.30;99.70;;;;;;4991144;28;20213;-68
2022/05/03 05:18:20;;;;;;;10.40;8.07;;;14.30;99.70;;;;;;4986197;28;20454;-66
2022/05/03 05:20:46;;;;;;;7.80;6.73;;;14.30;99.70;;;;;;4953465;28;20457;-66
2022/05/03 05:23:12;;;;;;;10.00;7.70;;;14.30;99.80;;;;;;4954081;28;20215;-65
2022/05/03 05:25:37;;;;;;;9.57;7.97;;;14.30;99.80;;;;;;4989170;28;20226;-67
2022/05/03 05:28:03;;;;;;;7.70;6.90;;;14.30;99.80;;;;;;4999518;28;20210;-65
2022/05/03 05:30:29;;;;;;;7.80;7.10;;;14.30;99.90;;;;;;4968329;28;20223;-65
2022/05/03 05:32:55;;;;;;;8.30;7.50;;;14.30;99.90;;;;;;4991958;28;20480;-65
2022/05/03 05:35:21;;;;;;;9.27;8.47;;;14.30;99.90;;;;;;4991657;28;20222;-66
2022/05/03 05:37:46;;;;;;;7.97;7.20;;;14.30;99.90;;;;;;4992221;28;20225;-67
2022/05/03 05:40:12;;;;;;;9.33;7.73;;;14.30;99.90;;;;;;4993169;28;20226;-69
2022/05/03 05:42:38;;;;;;;9.63;7.83;;;14.30;99.90;;;;;;5004191;28;20785;-67
2022/05/03 05:45:05;;;;;;;7.70;7.00;;;14.30;99.90;;;;;;4987531;28;20236;-68
2022/05/03 05:47:30;;;;;;;9.20;8.30;;;14.30;99.90;;;;;;5004001;28;20457;-68
2022/05/03 05:49:56;;;;;;;7.30;6.60;;;14.30;99.90;;;;;;4992898;28;20563;-66
2022/05/03 05:55:07;;;;;;;8.03;7.23;;;14.30;99.90;;;;;;4991148;28;20222;-67
2022/05/03 05:57:32;;;;;;;9.57;8.07;;;14.30;99.90;;;;;;4990730;28;20461;-69
2022/05/03 05:59:58;;;;;;;9.70;8.50;;;14.30;99.90;;;;;;4998075;28;20475;-69
2022/05/03 06:02:23;;;;;;;8.13;7.17;;;14.30;99.90;;;;;;5002188;28;20217;-69
2022/05/03 06:04:49;;;;;;;8.60;7.70;;;14.20;99.90;;;;;;5004125;28;20229;-67
2022/05/03 06:07:15;;;;;;;10.30;7.90;;;14.20;99.90;;;;;;4986615;28;20222;-67
2022/05/03 06:09:40;;;;;;;9.37;8.37;;;14.30;99.90;;;;;;5002119;28;20238;-67
2022/05/03 06:12:06;;;;;;;10.00;8.67;;;14.20;99.90;;;;;;5004947;28;20248;-69
2022/05/03 06:14:32;;;;;;;11.37;10.17;;;14.20;99.90;;;;;;4988700;28;20226;-68
2022/05/03 06:16:58;;;;;;;13.33;8.67;;;14.30;99.90;;;;;;4989454;28;20461;-70
2022/05/03 06:19:24;;;;;;;9.80;8.17;;;14.30;99.90;;;;;;4989806;28;20218;-67
2022/05/03 06:21:50;;;;;;;8.83;7.63;;;14.30;99.90;;;;;;4987687;28;20218;-67
2022/05/03 06:24:16;;;;;;;10.10;7.27;;;14.30;99.90;;;;;;4986474;28;20217;-69
2022/05/03 06:26:43;;;;;;;10.53;8.93;;;14.30;99.90;;;;;;5005150;28;20445;-68
2022/05/03 06:29:09;;;;;;;10.60;8.97;;;14.40;99.90;;;;;;4989237;28;20539;-69
2022/05/03 06:31:35;;;;;;;10.80;7.80;;;14.40;99.90;;;;;;4989675;28;20473;-69
2022/05/03 06:34:01;;;;;;;8.03;7.23;;;14.40;99.90;;;;;;5001360;28;20536;-67
2022/05/03 06:36:27;;;;;;;13.50;8.07;;;14.40;99.90;;;;;;4988576;28;20551;-67
2022/05/03 06:38:53;;;;;;;8.77;7.57;;;14.40;99.90;;;;;;4988240;28;20304;-68
2022/05/03 06:41:19;;;;;;;9.30;7.60;;;14.40;99.90;;;;;;4971946;28;20314;-71
2022/05/03 06:43:44;;;;;;;8.57;7.50;;;14.40;99.90;;;;;;4988811;28;20232;-70
2022/05/03 06:46:10;;;;;;;7.77;6.97;;;14.50;99.90;;;;;;4988565;28;20226;-67
2022/05/03 06:48:37;;;;;;;7.60;6.90;;;14.50;99.90;;;;;;4987581;28;20284;-66
2022/05/03 06:51:03;;;;;;;8.00;6.77;;;14.50;99.90;;;;;;4988797;28;20484;-67
2022/05/03 06:53:29;;;;;;;8.10;7.30;;;14.50;99.90;;;;;;4986771;28;20469;-69
2022/05/03 06:55:55;;;;;;;7.97;7.07;;;14.50;99.90;;;;;;4988362;28;20528;-69
2022/05/03 06:58:20;;;;;;;9.00;7.13;;;14.50;99.90;;;;;;4988187;28;20852;-67
2022/05/03 07:00:46;;;;;;;9.33;7.50;;;14.60;99.90;;;;;;4987281;28;20213;-68
2022/05/03 07:03:12;;;;;;;7.60;6.90;;;14.60;99.90;;;;;;4988659;28;20300;-68
2022/05/03 07:05:39;;;;;;;8.00;7.20;;;14.60;99.90;;;;;;4984855;28;20265;-68
2022/05/03 07:08:05;;;;;;;8.80;7.93;;;14.60;99.90;;;;;;4998329;28;20965;-67
2022/05/03 07:10:30;;;;;;;9.40;7.63;;;14.70;99.90;;;;;;4997886;28;20461;-67
2022/05/03 07:12:56;;;;;;;9.60;8.53;;;14.70;99.90;;;;;;4987561;28;20477;-67
2022/05/03 07:15:24;;;;;;;8.17;7.33;;;14.70;99.90;;;;;;4994862;28;20218;-67
2022/05/03 07:23:18;;;;;;;8.10;7.30;;;14.80;99.90;;;;;;4991292;28;20608;-67
2022/05/03 07:25:44;;;;;;;8.00;7.27;;;14.80;99.90;;;;;;4987071;28;20532;-71
2022/05/03 07:28:11;;;;;;;8.60;7.50;;;14.80;99.90;;;;;;4981434;28;20214;-67
2022/05/03 07:30:36;;;;;;;9.57;7.87;;;14.90;99.90;;;;;;4987035;28;20229;-70
2022/05/03 07:33:03;;;;;;;9.33;7.70;;;14.90;99.90;;;;;;4990424;28;20511;-67
2022/05/03 07:35:29;;;;;;;8.33;7.53;;;14.90;99.90;;;;;;4989907;28;20233;-70
2022/05/03 07:37:54;;;;;;;11.23;7.03;;;15.00;99.90;;;;;;4988028;28;20473;-70
2022/05/03 07:40:20;;;;;;;8.77;7.87;;;15.00;99.90;;;;;;4987205;28;20729;-67
2022/05/03 07:42:46;;;;;;;8.53;7.23;;;15.00;99.90;;;;;;4987398;28;20308;-67
2022/05/03 07:45:12;;;;;;;10.40;8.27;;;15.10;99.90;;;;;;4982245;28;20222;-68
2022/05/03 07:47:38;;;;;;;10.20;7.23;;;15.10;99.90;;;;;;4986237;28;20508;-68
2022/05/03 07:50:05;;;;;;;11.67;8.20;;;15.10;99.90;;;;;;4989038;28;20218;-68
2022/05/03 07:52:31;;;;;;;8.90;7.87;;;15.10;99.90;;;;;;5001627;28;20229;-67
2022/05/03 07:54:57;;;;;;;8.80;7.60;;;15.20;99.90;;;;;;5003765;28;20451;-68
2022/05/03 07:57:24;;;;;;;8.57;7.53;;;15.20;99.90;;;;;;4980753;28;20245;-67
2022/05/03 07:59:50;;;;;;;9.03;6.90;;;15.30;99.90;;;;;;4996877;28;20511;-69
2022/05/03 08:02:16;;;;;;;8.70;7.80;;;15.30;99.90;;;;;;4980083;28;20829;-68
2022/05/03 08:04:42;;;;;;;8.03;7.33;;;15.40;99.90;;;;;;4976723;28;20458;-69
2022/05/03 08:07:07;;;;;;;7.90;7.10;;;15.40;99.90;;;;;;4980288;28;20372;-67
2022/05/03 08:09:37;;;;;;;7.60;6.83;;;15.50;99.90;;;;;;4966593;28;20655;-69
2022/05/03 08:12:04;;;;;;;8.63;7.67;;;15.50;99.90;;;;;;4966652;28;20727;-68
2022/05/03 08:14:29;;;;;;;9.23;8.03;;;15.50;99.90;;;;;;4979741;28;20457;-67
2022/05/03 08:16:56;;;;;;;11.53;8.03;;;15.60;99.90;;;;;;4969544;28;20458;-69
2022/05/03 08:19:24;;;;;;;9.57;7.33;;;15.60;99.90;;;;;;4967222;28;20254;-67
2022/05/03 08:21:53;;;;;;;8.57;7.57;;;15.70;99.90;;;;;;4966916;28;20846;-69
2022/05/03 08:24:22;;;;;;;8.10;7.17;;;15.70;99.90;;;;;;4966652;28;20461;-67
2022/05/03 08:26:47;;;;;;;8.27;7.37;;;15.70;99.90;;;;;;4975365;28;20478;-71
2022/05/03 08:29:13;;;;;;;9.20;7.27;;;15.80;99.90;;;;;;4968345;28;20504;-68
2022/05/03 08:31:39;;;;;;;11.10;7.33;;;15.80;99.90;;;;;;4968484;28;20234;-68
2022/05/03 08:34:04;;;;;;;8.50;7.67;;;15.80;99.90;;;;;;4968390;28;20269;-70
2022/05/03 08:36:30;;;;;;;9.60;7.67;;;15.90;99.90;;;;;;4970885;28;20272;-67
2022/05/03 08:44:25;;;;;;;7.80;7.00;;;16.00;99.90;;;;;;4998888;28;20528;-68
2022/05/03 08:46:53;;;;;;;8.23;7.27;;;16.00;99.90;;;;;;4985155;28;20544;-71
2022/05/03 08:49:21;;;;;;;8.77;7.90;;;16.10;99.90;;;;;;4968509;28;20322;-71
2022/05/03 08:51:50;;;;;;;8.80;7.23;;;16.10;99.90;;;;;;5000408;28;20464;-68
2022/05/03 08:54:16;;;;;;;8.80;7.90;;;16.20;99.90;;;;;;4981630;28;20513;-66
2022/05/03 08:56:42;;;;;;;7.30;6.60;;;16.30;99.90;;;;;;4985644;28;20469;-68
2022/05/03 08:59:08;;;;;;;8.57;7.63;;;16.30;99.90;;;;;;4992138;28;20288;-69
2022/05/03 09:01:34;;;;;;;8.03;7.17;;;16.40;99.90;;;;;;4985698;28;20483;-67
2022/05/03 09:04:00;;;;;;;8.83;7.57;;;16.40;99.90;;;;;;4986861;28;20519;-69
2022/05/03 09:06:52;;;;;;;9.23;8.23;;;16.40;99.90;;;;;;4987811;28;20454;-68
2022/05/03 09:09:20;;;;;;;8.43;7.40;;;16.40;99.90;;;;;;4986891;28;20218;-70
2022/05/03 09:11:57;;;;;;;8.13;7.40;;;16.50;99.90;;;;;;4982176;28;21047;-70
2022/05/03 09:14:42;;;;;;;9.50;7.83;;;16.50;99.90;;;;;;4985382;28;20500;-68
2022/05/03 09:17:07;;;;;;;8.90;7.27;;;16.50;99.90;;;;;;4986073;28;20460;-66
2022/05/03 09:19:33;;;;;;;8.23;7.50;;;16.60;99.90;;;;;;4981823;28;20526;-68
2022/05/03 09:24:53;;;;;;;8.37;7.47;;;16.70;99.90;;;;;;4996272;28;20288;-66
2022/05/03 09:27:20;;;;;;;8.90;7.70;;;16.80;99.90;;;;;;5000059;28;20472;-67
2022/05/03 09:30:04;;;;;;;8.20;7.40;;;16.80;99.90;;;;;;5000562;28;20523;-70
2022/05/03 09:32:38;;;;;;;9.23;7.90;;;16.80;99.90;;;;;;4982268;28;20477;-68
2022/05/03 09:35:05;;;;;;;9.10;6.83;;;16.90;99.90;;;;;;4984350;28;20449;-69
2022/05/03 09:37:41;;;;;;;9.53;8.57;;;17.00;99.90;;;;;;4985129;28;20465;-70
2022/05/03 09:40:09;;;;;;;9.70;8.30;;;17.00;99.90;;;;;;5002554;28;21009;-70
2022/05/03 09:42:36;;;;;;;8.80;7.90;;;17.10;99.90;;;;;;4982695;28;20473;-69
2022/05/03 09:45:05;;;;;;;8.67;7.87;;;17.10;99.90;;;;;;4987828;28;20461;-68
2022/05/03 09:47:52;;;;;;;8.73;7.70;;;17.20;99.90;;;;;;4986352;28;20449;-68
2022/05/03 09:50:28;;;;;;;9.00;7.57;;;17.20;99.90;;;;;;4982869;28;20457;-67
2022/05/03 09:52:56;;;;;;;10.07;6.70;;;17.30;99.90;;;;;;4988897;28;20469;-70
2022/05/03 09:55:30;;;;;;;8.97;7.97;;;17.40;99.90;;;;;;4985245;28;20457;-69
2022/05/03 09:57:59;;;;;;;7.40;6.77;;;17.40;99.90;;;;;;4987077;28;20457;-70
2022/05/03 10:00:25;;;;;;;9.00;7.03;;;17.50;99.90;;;;;;4988496;28;20541;-65
2022/05/03 10:02:52;;;;;;;8.13;7.33;;;17.50;99.90;;;;;;4987368;28;20445;-69
2022/05/03 10:05:21;;;;;;;8.00;7.23;;;17.60;99.90;;;;;;4986174;28;20468;-69
2022/05/03 10:07:50;;;;;;;9.00;8.10;;;17.60;99.90;;;;;;4985754;28;20985;-67
2022/05/03 10:10:16;;;;;;;8.00;7.20;;;17.70;99.90;;;;;;4983274;28;20993;-68
2022/05/03 10:12:43;;;;;;;8.83;7.57;;;17.80;99.90;;;;;;4986492;28;20481;-69
2022/05/03 10:15:10;;;;;;;9.33;7.63;;;17.80;99.90;;;;;;4986628;28;20232;-67
2022/05/03 10:20:39;;;;;;;8.33;7.53;;;17.90;99.90;;;;;;4987929;28;20488;-68
2022/05/03 10:23:28;;;;;;;8.33;7.30;;;17.90;99.90;;;;;;4987362;28;20496;-68
2022/05/03 10:26:08;;;;;;;7.97;7.30;;;18.00;99.90;;;;;;5002926;28;20461;-70
2022/05/03 10:29:02;;;;;;;7.60;6.37;;;18.20;99.90;;;;;;4998120;28;20470;-70
2022/05/03 10:31:28;;;;;;;8.50;7.37;;;18.30;99.90;;;;;;5001301;28;20492;-69
2022/05/03 10:33:53;;;;;;;8.63;6.60;;;18.40;99.90;;;;;;4982805;28;20457;-72
2022/05/03 10:36:35;;;;;;;9.10;8.20;;;18.50;99.90;;;;;;4986733;28;20308;-72
2022/05/03 10:39:23;;;;;;;9.00;8.10;;;18.60;99.90;;;;;;4996784;28;20280;-71
2022/05/03 10:41:56;;;;;;;8.27;7.47;;;18.60;99.60;;;;;;4985308;28;20452;-70
2022/05/03 10:44:55;;;;;;;7.80;7.00;;;18.70;99.70;;;;;;4983168;28;20453;-68
2022/05/03 10:47:38;;;;;;;10.50;8.43;;;18.80;99.90;;;;;;4985384;28;21116;-67
2022/05/03 10:50:10;;;;;;;8.13;7.33;;;18.80;99.50;;;;;;4977458;28;20594;-67
2022/05/03 10:52:36;;;;;;;9.93;8.57;;;18.90;99.60;;;;;;4982136;28;20485;-69
2022/05/03 10:55:06;;;;;;;9.37;8.47;;;18.90;99.50;;;;;;4985055;28;20461;-72
2022/05/03 10:57:53;;;;;;;7.83;7.07;;;19.00;99.90;;;;;;4986390;28;21023;-69
2022/05/03 11:00:57;;;;;;;8.67;7.33;;;19.20;99.90;;;;;;4983112;28;20978;-70
2022/05/03 11:03:23;;;;;;;7.10;6.50;;;19.40;99.90;;;;;;4985495;28;20920;-70
2022/05/03 11:06:19;;;;;;;10.10;6.53;;;19.60;99.90;;;;;;4966731;28;20470;-74
2022/05/03 11:11:37;;;;;;;8.00;7.20;;;19.90;99.90;;;;;;4983072;28;20473;-71
2022/05/03 11:14:26;;;;;;;8.27;7.40;;;20.00;99.20;;;;;;4985772;28;20872;-72
2022/05/03 11:17:01;;;;;;;7.90;7.20;;;20.00;99.50;;;;;;4978341;28;20978;-72
2022/05/03 11:19:27;;;;;;;8.80;7.63;;;20.00;98.60;;;;;;5001718;28;20464;-71
2022/05/03 11:21:55;;;;;;;8.10;7.40;;;19.90;98.50;;;;;;4989887;28;20453;-73
2022/05/03 11:24:30;;;;;;;9.43;7.60;;;20.00;99.40;;;;;;4982292;28;20796;-71
2022/05/03 11:27:05;;;;;;;8.00;7.30;;;20.10;98.40;;;;;;4987957;28;20547;-71
2022/05/03 11:29:58;;;;;;;7.43;6.47;;;20.20;99.60;;;;;;4987765;28;20464;-71
2022/05/03 11:32:33;;;;;;;8.63;7.73;;;20.60;99.00;;;;;;4981751;28;20484;-70
2022/05/03 11:35:02;;;;;;;9.57;7.93;;;20.70;98.60;;;;;;4988317;28;20472;-73
2022/05/03 11:37:28;;;;;;;7.87;6.80;;;20.60;98.60;;;;;;4980848;28;20580;-70
2022/05/03 11:40:02;;;;;;;9.10;7.10;;;20.70;98.30;;;;;;4984801;28;20486;-73
2022/05/03 11:42:34;;;;;;;8.27;7.57;;;20.70;98.10;;;;;;4984432;28;20221;-69
2022/05/03 11:45:00;;;;;;;8.50;6.90;;;20.90;98.50;;;;;;4998409;28;20495;-70
2022/05/03 11:47:26;;;;;;;7.87;6.77;;;20.90;97.60;;;;;;4983483;28;20492;-72
2022/05/03 11:49:52;;;;;;;8.70;7.90;;;21.00;97.70;;;;;;4986126;28;20233;-69
2022/05/03 11:57:47;;;;;;;8.23;7.47;;;21.10;97.30;;;;;;4985418;28;20461;-73
2022/05/03 12:00:13;;;;;;;8.30;7.50;;;21.10;98.10;;;;;;4981007;28;20501;-73
2022/05/03 12:02:43;;;;;;;7.43;6.83;;;21.10;97.20;;;;;;4985688;28;20236;-70
2022/05/03 12:05:12;;;;;;;10.37;7.70;;;21.10;96.90;;;;;;4985042;28;20516;-70
2022/05/03 12:07:50;;;;;;;8.57;7.40;;;20.80;96.60;;;;;;5002971;28;20469;-70
2022/05/03 12:10:18;;;;;;;7.43;6.80;;;20.90;97.00;;;;;;4986034;28;20460;-71
2022/05/03 12:12:43;;;;;;;8.50;7.60;;;21.10;96.60;;;;;;4988348;28;20488;-71
2022/05/03 12:15:21;;;;;;;7.73;7.10;;;21.10;96.40;;;;;;4986817;28;20461;-71
2022/05/03 12:17:59;;;;;;;9.53;7.93;;;21.20;96.90;;;;;;4986287;28;20225;-69
2022/05/03 12:20:29;;;;;;;7.90;7.20;;;21.20;96.40;;;;;;4987493;28;20973;-68
2022/05/03 12:23:12;;;;;;;12.03;7.70;;;21.20;96.20;;;;;;4979811;28;20496;-71
2022/05/03 12:25:38;;;;;;;7.93;7.13;;;21.30;96.80;;;;;;4985052;28;20469;-73
2022/05/03 12:28:05;;;;;;;8.27;7.50;;;21.40;96.50;;;;;;4986220;28;20609;-69
2022/05/03 12:30:31;;;;;;;7.70;7.00;;;21.50;96.50;;;;;;4988092;28;20225;-71
2022/05/03 12:33:02;;;;;;;7.27;6.67;;;21.60;96.10;;;;;;4987380;28;20475;-73
2022/05/03 12:35:37;;;;;;;7.33;6.73;;;21.50;95.60;;;;;;4969521;28;20700;-69
2022/05/03 12:38:10;;;;;;;8.37;7.40;;;21.50;95.20;;;;;;4983042;28;21007;-70
2022/05/03 12:40:53;;;;;;;8.03;7.23;;;21.40;95.70;;;;;;4987388;28;20464;-71
2022/05/03 12:43:26;;;;;;;8.33;7.67;;;21.50;95.80;;;;;;5000474;28;20464;-71
2022/05/03 12:46:07;;;;;;;8.57;7.10;;;21.70;96.40;;;;;;4985857;28;20456;-69
2022/05/03 12:48:36;;;;;;;7.77;6.97;;;21.70;95.80;;;;;;4968111;28;20459;-73
2022/05/03 12:51:03;;;;;;;7.40;6.73;;;21.80;95.60;;;;;;4987539;28;20463;-71
2022/05/03 12:53:31;;;;;;;8.10;7.20;;;21.90;95.60;;;;;;4987704;28;20516;-73
2022/05/03 12:58:21;;;;;;;8.13;7.33;;;21.80;95.20;;;;;;5003005;28;20524;-71
2022/05/03 12:58:44;;;;;;;8.00;7.20;;;21.70;95.60;;;;;;4985493;28;20596;-69
2022/05/03 13:01:11;;;;;;;9.10;8.27;;;21.70;95.50;;;;;;4988259;28;20472;-70
2022/05/03 13:03:41;;;;;;;7.73;6.87;;;21.70;95.20;;;;;;4975668;28;20505;-69
2022/05/03 13:06:07;;;;;;;8.63;7.73;;;21.80;95.00;;;;;;4967246;28;20830;-72
2022/05/03 13:08:33;;;;;;;7.47;6.70;;;21.90;95.20;;;;;;4967208;28;20469;-70
2022/05/03 13:10:59;;;;;;;7.20;6.60;;;21.90;95.30;;;;;;4968714;28;20222;-69
2022/05/03 13:13:25;;;;;;;9.53;7.27;;;21.90;94.60;;;;;;4972382;28;20693;-70
2022/05/03 13:15:52;;;;;;;8.70;6.80;;;21.90;94.70;;;;;;4967688;28;20219;-70
2022/05/03 13:18:17;;;;;;;8.77;7.63;;;21.80;94.60;;;;;;4952170;28;20489;-69
2022/05/03 13:20:46;;;;;;;6.97;6.33;;;21.80;95.10;;;;;;4972360;28;20545;-70
2022/05/03 13:23:12;;;;;;;8.37;6.47;;;21.90;94.80;;;;;;4972093;28;20214;-71
2022/05/03 13:25:38;;;;;;;8.10;7.20;;;22.00;94.60;;;;;;4981550;28;20519;-72
2022/05/03 13:28:06;;;;;;;7.37;6.67;;;22.00;94.10;;;;;;4971309;28;20214;-69
2022/05/03 13:30:32;;;;;;;6.90;6.20;;;21.90;93.60;;;;;;4968433;28;20223;-71
2022/05/03 13:32:58;;;;;;;6.90;6.03;;;21.90;93.30;;;;;;4964627;28;20478;-69
2022/05/03 13:40:55;;;;;;;7.60;6.77;;;22.00;94.00;;;;;;4992649;28;20474;-70
2022/05/03 13:43:22;;;;;;;7.80;7.00;;;22.00;93.50;;;;;;4985085;28;20468;-72
2022/05/03 13:45:48;;;;;;;7.03;6.37;;;22.10;93.50;;;;;;5000561;28;20884;-72
2022/05/03 13:48:14;;;;;;;7.10;6.50;;;22.20;93.50;;;;;;4984019;28;20456;-70
2022/05/03 13:50:40;;;;;;;7.63;6.27;;;22.30;93.90;;;;;;4986061;28;20469;-70